Time;durP1;ratioP1;P1;durP2;ratioP2;P2;SDS_P1;SDS_P2;PMS_P1;PMS_P2;Temp;Humidity;BMP_temperature;BMP_pressure;BME280_temperature;BME280_humidity;BME280_pressure;Samples;Min_cycle;Max_cycle;Signal;HPM_P1;HPM_P2
2022/07/20 00:01:04;;;;;;;2.78;2.28;;;;;;;14.51;62.04;94105.63;5028241;28;20017;-40
2022/07/20 00:03:30;;;;;;;4.50;2.10;;;;;;;14.52;62.05;94109.16;5034992;28;20040;-40
2022/07/20 00:05:55;;;;;;;3.17;2.70;;;;;;;14.52;62.40;94109.16;5048162;28;20033;-40
2022/07/20 00:11:20;;;;;;;5.60;2.85;;;;;;;14.34;62.58;94099.94;5043839;28;20467;-40
2022/07/20 00:13:47;;;;;;;3.10;2.22;;;;;;;14.20;62.84;94101.41;5028498;28;20052;-39
2022/07/20 00:16:12;;;;;;;2.90;2.42;;;;;;;14.32;62.33;94099.75;5026988;28;20108;-39
2022/07/20 00:18:38;;;;;;;2.85;2.20;;;;;;;14.23;62.69;94098.25;5027760;28;20100;-42
2022/07/20 00:21:03;;;;;;;3.28;2.75;;;;;;;14.21;63.46;94102.88;5027096;28;20049;-42
2022/07/20 00:23:29;;;;;;;2.72;2.35;;;;;;;14.20;63.06;94098.63;5027640;28;20033;-42
2022/07/20 00:25:54;;;;;;;2.25;2.00;;;;;;;14.22;63.19;94098.81;5028136;28;20044;-42
2022/07/20 00:28:20;;;;;;;4.60;2.28;;;;;;;14.14;63.25;94101.59;5028103;28;20026;-42
2022/07/20 00:30:46;;;;;;;2.35;2.15;;;;;;;14.22;63.22;94093.25;5025551;28;20395;-42
2022/07/20 00:33:12;;;;;;;3.53;2.58;;;;;;;14.24;63.14;94096.22;5026024;28;20029;-42
2022/07/20 00:35:37;;;;;;;2.63;2.42;;;;;;;13.94;63.10;94044.25;5025998;28;20036;-42
2022/07/20 00:54:24;;;;;;;3.47;2.33;;;;;;;14.80;60.56;94089.44;5107059;27;20624;-41
2022/07/20 00:56:50;;;;;;;4.45;2.88;;;;;;;14.56;60.67;94090.06;5107900;28;20030;-42
2022/07/20 00:59:15;;;;;;;4.00;2.58;;;;;;;14.11;61.86;94091.59;5089712;28;20054;-42
2022/07/20 01:01:41;;;;;;;5.95;3.45;;;;;;;13.87;62.63;94091.41;5107308;28;20032;-41
2022/07/20 01:04:07;;;;;;;4.88;2.88;;;;;;;13.81;63.25;94091.63;5093787;28;20067;-41
2022/07/20 01:06:32;;;;;;;3.95;3.20;;;;;;;13.85;63.27;94071.81;5087219;28;20019;-41
2022/07/20 01:08:58;;;;;;;6.32;3.20;;;;;;;13.57;63.20;94061.63;5087155;28;20032;-42
2022/07/20 01:11:23;;;;;;;5.95;3.08;;;;;;;13.66;64.01;94086.78;5074021;28;20023;-41
2022/07/20 01:13:49;;;;;;;5.78;3.15;;;;;;;13.43;64.72;94090.81;5098358;28;20504;-41
2022/07/20 01:16:14;;;;;;;8.82;3.80;;;;;;;13.49;64.48;94088.63;5091877;28;20119;-40
2022/07/20 01:18:40;;;;;;;7.20;4.05;;;;;;;13.36;65.00;94097.81;5104267;28;20026;-40
2022/07/20 01:21:10;;;;;;;9.20;4.72;;;;;;;13.33;65.08;94082.31;5107139;28;20020;-41
2022/07/20 01:23:36;;;;;;;7.63;4.68;;;;;;;13.36;64.98;94083.97;5107507;28;20513;-41
2022/07/20 01:26:01;;;;;;;9.70;4.60;;;;;;;13.38;65.20;94088.97;5107028;28;20024;-41
2022/07/20 01:28:28;;;;;;;7.50;4.68;;;;;;;13.31;65.03;94084.13;5107068;28;20019;-41
2022/07/20 01:30:54;;;;;;;8.70;4.60;;;;;;;13.33;65.17;94079.53;5107165;28;20051;-41
2022/07/20 01:33:21;;;;;;;4.15;2.75;;;;;;;13.33;64.21;94081.56;5107007;28;20408;-41
2022/07/20 01:35:46;;;;;;;6.40;3.88;;;;;;;13.26;64.69;94088.56;5107205;28;20031;-41
2022/07/20 01:38:12;;;;;;;4.65;3.15;;;;;;;13.24;64.31;94084.84;5107080;28;20422;-41
2022/07/20 01:40:37;;;;;;;6.10;3.42;;;;;;;13.23;63.89;94075.78;5107128;28;20024;-41
2022/07/20 01:43:03;;;;;;;4.90;3.22;;;;;;;13.17;64.43;94082.78;5106985;28;20016;-41
2022/07/20 01:45:28;;;;;;;4.43;3.15;;;;;;;13.28;64.44;94088.00;5101689;28;20028;-41
2022/07/20 01:47:54;;;;;;;4.53;3.13;;;;;;;13.37;64.33;94085.44;5083525;28;20058;-41
2022/07/20 01:50:19;;;;;;;5.65;3.63;;;;;;;13.45;64.25;94088.22;5072843;28;20154;-41
2022/07/20 01:52:45;;;;;;;5.07;3.17;;;;;;;13.28;64.78;94080.44;5072395;28;20044;-41
2022/07/20 01:55:11;;;;;;;4.03;3.00;;;;;;;13.03;64.98;94079.44;5072835;28;20036;-41
2022/07/20 01:57:37;;;;;;;5.95;3.50;;;;;;;12.93;65.63;94084.75;5072612;28;20020;-40
2022/07/20 02:00:08;;;;;;;6.78;3.17;;;;;;;13.12;65.01;94092.03;5072679;28;20020;-41
2022/07/20 02:02:34;;;;;;;3.72;3.15;;;;;;;12.89;65.13;94073.28;5072815;28;20031;-40
2022/07/20 02:04:59;;;;;;;7.63;3.13;;;;;;;13.10;64.35;94084.28;5072505;28;20103;-40
2022/07/20 02:07:25;;;;;;;3.30;2.78;;;;;;;12.86;65.27;94079.91;5072843;28;20016;-42
2022/07/20 02:09:51;;;;;;;3.50;2.70;;;;;;;13.00;64.85;94086.06;5072857;28;20486;-41
2022/07/20 02:12:16;;;;;;;3.00;2.42;;;;;;;12.89;64.77;94086.38;5072816;28;20086;-42
2022/07/20 02:14:42;;;;;;;2.83;2.15;;;;;;;12.79;65.16;94080.63;5072381;28;20104;-41
2022/07/20 02:17:07;;;;;;;6.35;2.35;;;;;;;12.86;64.65;94087.50;5072193;28;20028;-41
2022/07/20 02:19:33;;;;;;;5.50;3.05;;;;;;;12.65;65.25;94084.81;5072615;28;20028;-41
2022/07/20 02:21:58;;;;;;;2.60;2.40;;;;;;;12.41;65.91;94085.22;5072282;28;20024;-40
2022/07/20 02:24:24;;;;;;;3.13;2.80;;;;;;;12.57;65.28;94070.19;5072217;28;20028;-41
2022/07/20 02:26:49;;;;;;;3.15;2.67;;;;;;;12.80;64.75;94082.09;5072120;28;20025;-41
2022/07/20 02:29:14;;;;;;;7.65;2.60;;;;;;;12.60;65.37;94088.50;5072197;28;20052;-41
2022/07/20 02:31:40;;;;;;;4.20;2.55;;;;;;;12.65;65.19;94082.03;5072123;28;20020;-41
2022/07/20 02:34:05;;;;;;;3.17;2.42;;;;;;;12.55;65.56;94083.09;5072304;28;20013;-44
2022/07/20 02:36:31;;;;;;;2.95;2.35;;;;;;;12.38;66.01;94085.59;5072306;28;20085;-45
2022/07/20 02:38:56;;;;;;;2.58;2.38;;;;;;;12.21;66.01;94085.31;5071839;28;20075;-45
2022/07/20 02:41:24;;;;;;;2.97;2.05;;;;;;;12.23;65.88;94080.72;5073624;28;20020;-46
2022/07/20 02:43:49;;;;;;;2.30;2.10;;;;;;;12.27;65.74;94085.88;5092317;28;20489;-45
2022/07/20 02:46:14;;;;;;;2.28;2.00;;;;;;;12.24;65.90;94084.94;5092020;28;20022;-46
2022/07/20 02:48:40;;;;;;;2.85;2.17;;;;;;;12.08;65.63;94030.78;5091971;28;20016;-43
2022/07/20 02:51:05;;;;;;;2.78;2.00;;;;;;;12.37;65.51;94084.84;5073827;28;20016;-41
2022/07/20 02:53:31;;;;;;;5.18;2.40;;;;;;;12.49;65.40;94088.06;5091738;28;20048;-42
2022/07/20 02:55:57;;;;;;;3.08;2.00;;;;;;;12.23;65.91;94085.50;5091789;28;20489;-42
2022/07/20 02:58:22;;;;;;;3.45;2.00;;;;;;;12.04;66.15;94094.78;5091731;28;20020;-42
2022/07/20 03:00:48;;;;;;;2.35;2.03;;;;;;;12.11;66.25;94085.03;5090637;28;20032;-42
2022/07/20 03:03:13;;;;;;;2.30;2.03;;;;;;;12.18;65.65;94084.34;5091977;28;20077;-42
2022/07/20 03:05:39;;;;;;;2.22;1.90;;;;;;;12.11;65.97;94085.03;5091582;28;20028;-40
2022/07/20 03:08:06;;;;;;;4.57;2.40;;;;;;;12.03;66.32;94100.84;5089416;28;20111;-40
2022/07/20 03:10:31;;;;;;;2.47;2.00;;;;;;;11.96;66.41;94102.28;5091917;28;20032;-40
2022/07/20 03:12:57;;;;;;;2.90;2.17;;;;;;;11.99;66.48;94103.97;5091619;28;20019;-41
2022/07/20 03:15:22;;;;;;;3.45;2.30;;;;;;;11.91;67.02;94099.69;5091446;28;20055;-40
2022/07/20 03:17:50;;;;;;;2.80;2.25;;;;;;;12.04;66.38;94102.34;5091303;28;20043;-41
2022/07/20 03:20:27;;;;;;;2.20;2.00;;;;;;;11.99;66.66;94103.97;5091295;28;20066;-41
2022/07/20 03:22:53;;;;;;;1.85;1.75;;;;;;;12.18;65.75;94098.19;5091515;28;20027;-40
2022/07/20 03:25:19;;;;;;;2.28;2.08;;;;;;;12.13;65.53;94102.59;5091293;28;20035;-40
2022/07/20 03:27:45;;;;;;;2.20;2.05;;;;;;;12.08;66.07;94106.25;5091519;28;20027;-40
2022/07/20 03:30:11;;;;;;;2.40;2.20;;;;;;;12.03;66.31;94107.16;5091203;28;20032;-40
2022/07/20 03:32:37;;;;;;;3.90;1.98;;;;;;;11.88;66.68;94109.06;5091294;28;20030;-40
2022/07/20 03:35:03;;;;;;;6.93;2.25;;;;;;;11.95;66.38;94106.31;5091062;28;20027;-40
2022/07/20 03:37:28;;;;;;;2.63;1.80;;;;;;;12.15;66.35;94107.56;5090703;28;20031;-40
2022/07/20 03:39:54;;;;;;;2.83;2.38;;;;;;;12.07;65.97;94104.78;5070974;28;20550;-40
2022/07/20 03:42:19;;;;;;;5.63;2.78;;;;;;;12.06;66.58;94110.84;5070714;28;20048;-40
2022/07/20 03:44:45;;;;;;;2.38;2.17;;;;;;;12.11;65.75;94118.25;5072297;28;20035;-40
2022/07/20 03:47:10;;;;;;;4.30;3.22;;;;;;;11.94;65.67;94121.47;5089475;28;20047;-40
2022/07/20 03:49:36;;;;;;;5.20;2.78;;;;;;;11.95;66.05;94122.94;5091082;28;20046;-40
2022/07/20 03:52:01;;;;;;;3.97;2.75;;;;;;;11.92;66.29;94112.22;5090534;28;20020;-41
2022/07/20 03:54:27;;;;;;;2.80;2.05;;;;;;;12.01;66.71;94118.00;5091009;28;20030;-41
2022/07/20 03:56:52;;;;;;;2.35;2.15;;;;;;;12.03;66.79;94112.69;5090563;28;20135;-40
2022/07/20 03:59:18;;;;;;;3.22;2.20;;;;;;;12.06;66.63;94111.56;5089626;28;20036;-41
2022/07/20 04:01:43;;;;;;;4.28;2.53;;;;;;;11.99;66.66;94111.53;5070609;28;20052;-41
2022/07/20 04:04:09;;;;;;;3.80;2.58;;;;;;;12.00;67.10;94110.97;5070392;28;20032;-41
2022/07/20 04:06:35;;;;;;;3.80;2.78;;;;;;;12.07;66.89;94096.47;5070342;28;20020;-41
2022/07/20 04:09:01;;;;;;;4.20;3.22;;;;;;;12.21;67.29;94116.50;5070232;28;20024;-41
2022/07/20 04:11:26;;;;;;;3.42;2.97;;;;;;;12.42;67.34;94114.41;5069990;28;20477;-41
2022/07/20 04:13:52;;;;;;;6.70;3.67;;;;;;;12.19;67.98;94119.78;5070498;28;20035;-41
2022/07/20 04:16:17;;;;;;;5.53;4.30;;;;;;;12.03;68.92;94103.63;5070110;28;20478;-42
2022/07/20 04:18:43;;;;;;;8.30;4.28;;;;;;;11.98;69.18;94110.03;5070174;28;20082;-41
2022/07/20 04:21:08;;;;;;;10.95;4.93;;;;;;;12.27;69.00;94119.13;5074013;28;20477;-41
2022/07/20 04:23:34;;;;;;;9.88;4.82;;;;;;;12.48;68.02;94114.25;5070231;28;20056;-41
2022/07/20 04:25:59;;;;;;;7.65;4.68;;;;;;;12.59;67.73;94111.94;5070171;28;20063;-41
2022/07/20 04:28:25;;;;;;;6.95;5.25;;;;;;;12.67;67.89;94115.47;5080750;28;20077;-41
2022/07/20 04:30:50;;;;;;;8.07;5.22;;;;;;;12.52;67.93;94081.41;5090182;28;20032;-42
2022/07/20 04:33:18;;;;;;;10.38;5.03;;;;;;;12.70;68.46;94119.94;5090229;28;20065;-40
2022/07/20 04:35:44;;;;;;;7.30;4.90;;;;;;;12.80;68.10;94115.34;5073137;28;20459;-40
2022/07/20 04:38:09;;;;;;;6.63;4.35;;;;;;;12.91;68.23;94117.06;5069856;28;20028;-40
2022/07/20 04:40:35;;;;;;;10.57;4.68;;;;;;;12.95;68.25;94122.97;5070298;28;20046;-40
2022/07/20 04:43:00;;;;;;;24.25;4.82;;;;;;;13.14;67.89;94117.94;5070812;28;20035;-41
2022/07/20 04:45:26;;;;;;;5.28;4.13;;;;;;;13.22;68.12;94121.47;5082031;28;20435;-40
2022/07/20 04:47:51;;;;;;;6.93;3.97;;;;;;;13.32;67.62;94116.16;5090360;28;20400;-40
2022/07/20 04:50:17;;;;;;;9.45;4.47;;;;;;;13.27;67.70;94119.81;5089940;28;20024;-40
2022/07/20 04:52:42;;;;;;;7.40;3.97;;;;;;;13.44;67.92;94122.81;5089981;28;20054;-41
2022/07/20 04:55:08;;;;;;;8.27;4.22;;;;;;;13.49;68.02;94119.13;5089954;28;20089;-41
2022/07/20 04:57:33;;;;;;;8.98;3.67;;;;;;;13.51;68.75;94120.03;5090067;28;20024;-42
2022/07/20 04:59:59;;;;;;;6.20;3.92;;;;;;;13.64;67.93;94127.50;5090155;28;20032;-42
2022/07/20 05:02:24;;;;;;;4.28;3.80;;;;;;;13.73;68.66;94115.09;5090175;28;20031;-42
2022/07/20 05:04:50;;;;;;;4.47;3.58;;;;;;;13.76;67.65;94113.97;5090069;28;20036;-40
2022/07/20 05:07:16;;;;;;;4.25;2.90;;;;;;;13.87;67.91;94116.41;5089964;28;20016;-41
2022/07/20 05:09:41;;;;;;;14.70;3.67;;;;;;;13.97;68.65;94111.78;5071902;28;20035;-41
2022/07/20 05:12:07;;;;;;;4.00;3.20;;;;;;;14.06;68.25;94117.53;5090039;28;20020;-41
2022/07/20 05:14:33;;;;;;;54.42;5.75;;;;;;;14.28;68.86;94122.31;5089937;28;20024;-40
2022/07/20 05:16:59;;;;;;;5.28;2.63;;;;;;;14.28;66.12;94108.44;5089627;28;20135;-43
2022/07/20 05:19:24;;;;;;;2.80;2.60;;;;;;;14.50;66.57;94122.88;5089776;28;20032;-42
2022/07/20 05:21:50;;;;;;;7.40;3.03;;;;;;;14.53;66.48;94119.72;5089695;28;20036;-42
2022/07/20 05:24:15;;;;;;;4.00;3.05;;;;;;;14.68;65.40;94118.97;5092117;28;20027;-40
2022/07/20 05:26:41;;;;;;;9.88;3.22;;;;;;;14.84;66.45;94114.81;5093413;28;20647;-40
2022/07/20 05:29:06;;;;;;;5.70;3.42;;;;;;;14.89;65.27;94114.63;5093386;28;20024;-40
2022/07/20 05:31:32;;;;;;;5.00;3.78;;;;;;;14.88;66.19;94118.72;5093002;28;20051;-40
2022/07/20 05:33:57;;;;;;;5.38;3.63;;;;;;;14.93;66.01;94119.81;5093412;28;20024;-41
2022/07/20 05:36:23;;;;;;;7.85;3.78;;;;;;;15.08;65.44;94123.28;5093361;28;20028;-40
2022/07/20 05:38:49;;;;;;;4.25;3.53;;;;;;;15.22;64.43;94123.03;5093148;28;20016;-40
2022/07/20 05:41:14;;;;;;;4.00;3.28;;;;;;;15.35;64.16;94122.78;5092981;28;20102;-41
2022/07/20 05:43:40;;;;;;;4.18;3.78;;;;;;;15.51;64.22;94113.06;5093508;28;20445;-41
2022/07/20 05:46:05;;;;;;;5.18;3.53;;;;;;;15.65;64.00;94123.41;5092044;28;20678;-41
2022/07/20 05:48:31;;;;;;;5.45;2.60;;;;;;;15.76;63.52;94113.88;5087756;28;20016;-41
2022/07/20 05:50:57;;;;;;;3.72;2.92;;;;;;;15.99;63.56;94119.25;5093267;28;20053;-42
2022/07/20 05:53:22;;;;;;;14.73;5.13;;;;;;;15.93;64.22;94117.47;5084564;28;20525;-41
2022/07/20 05:55:48;;;;;;;6.13;2.92;;;;;;;15.92;63.76;94104.84;5073010;28;20016;-41
2022/07/20 05:58:13;;;;;;;5.50;2.58;;;;;;;16.15;64.58;94123.44;5071930;28;20126;-41
2022/07/20 06:00:39;;;;;;;4.60;2.55;;;;;;;16.32;64.23;94120.69;5075143;28;20016;-40
2022/07/20 06:03:05;;;;;;;39.65;5.05;;;;;;;16.33;64.14;94111.03;5075967;28;20052;-40
2022/07/20 06:05:31;;;;;;;12.73;2.63;;;;;;;16.59;62.88;94122.31;5072604;28;20016;-39
2022/07/20 06:08:00;;;;;;;4.68;2.53;;;;;;;16.73;62.65;94119.22;5072801;28;20103;-40
2022/07/20 06:10:26;;;;;;;3.17;2.70;;;;;;;16.79;61.96;94128.06;5072795;28;20024;-40
2022/07/20 06:12:51;;;;;;;3.95;2.60;;;;;;;16.90;61.06;94117.16;5079571;28;20059;-40
2022/07/20 06:15:17;;;;;;;4.82;2.10;;;;;;;16.98;60.46;94117.81;5092640;28;20462;-39
2022/07/20 06:17:42;;;;;;;5.10;2.10;;;;;;;17.10;59.79;94118.81;5092899;28;20021;-39
2022/07/20 06:20:13;;;;;;;3.97;2.28;;;;;;;17.25;58.71;94113.03;5092673;28;20550;-40
2022/07/20 06:22:40;;;;;;;4.05;2.08;;;;;;;17.36;58.79;94115.31;5092541;28;20568;-40
2022/07/20 06:25:07;;;;;;;4.30;2.25;;;;;;;17.58;57.33;94121.97;5092591;28;20108;-41
2022/07/20 06:27:32;;;;;;;3.33;1.80;;;;;;;17.90;54.34;94123.75;5081336;28;20032;-40
2022/07/20 06:29:58;;;;;;;4.60;1.70;;;;;;;18.13;56.08;94118.53;5074841;28;20032;-42
2022/07/20 06:32:24;;;;;;;4.65;1.95;;;;;;;18.09;54.41;94109.84;5075073;28;20050;-44
2022/07/20 06:34:50;;;;;;;2.15;1.90;;;;;;;18.10;55.87;94112.03;5078413;28;20082;-42
2022/07/20 06:37:15;;;;;;;2.65;2.00;;;;;;;18.31;56.37;94108.75;5071895;28;20055;-43
2022/07/20 06:39:41;;;;;;;3.60;1.60;;;;;;;18.31;57.27;94105.22;5084029;28;20032;-43
2022/07/20 06:42:06;;;;;;;3.10;2.30;;;;;;;18.64;56.21;94103.56;5077893;28;20016;-43
2022/07/20 06:44:32;;;;;;;2.13;1.92;;;;;;;18.80;56.07;94099.91;5084053;28;20532;-41
2022/07/20 06:46:57;;;;;;;1.63;1.52;;;;;;;18.99;56.57;94098.44;5082845;28;20012;-41
2022/07/20 06:49:24;;;;;;;4.85;1.92;;;;;;;19.24;54.22;94096.06;5084975;28;20029;-43
2022/07/20 06:51:50;;;;;;;1.75;1.55;;;;;;;19.35;53.48;94098.31;5080713;28;20177;-41
2022/07/20 06:54:15;;;;;;;2.03;1.88;;;;;;;19.38;53.73;94097.84;5082053;28;20119;-41
2022/07/20 06:56:41;;;;;;;2.03;1.60;;;;;;;19.38;54.44;94094.31;5077018;28;20039;-44
2022/07/20 06:59:06;;;;;;;1.55;1.45;;;;;;;19.72;54.41;94090.41;5080500;28;20485;-41
2022/07/20 07:01:31;;;;;;;1.33;1.23;;;;;;;19.81;53.46;94092.47;5083489;28;20047;-44
2022/07/20 07:03:57;;;;;;;13.02;2.10;;;;;;;19.80;52.75;94082.56;5079388;28;20074;-42
2022/07/20 07:06:27;;;;;;;1.63;1.42;;;;;;;20.05;52.49;94094.16;5086267;28;20028;-42
2022/07/20 07:08:53;;;;;;;1.50;1.38;;;;;;;20.02;52.65;94089.72;5089533;28;20032;-41
2022/07/20 07:11:18;;;;;;;1.52;1.42;;;;;;;20.28;50.48;94088.75;5091533;28;20039;-41
2022/07/20 07:13:43;;;;;;;7.97;1.92;;;;;;;20.40;49.79;94092.38;5080877;28;20031;-41
2022/07/20 07:16:09;;;;;;;4.82;1.60;;;;;;;20.62;48.65;94095.97;5074580;28;20032;-41
2022/07/20 07:18:34;;;;;;;1.98;1.42;;;;;;;20.77;48.43;94084.38;5071437;28;20081;-40
2022/07/20 07:21:00;;;;;;;1.50;1.30;;;;;;;20.84;48.22;94095.38;5087053;28;20024;-40
2022/07/20 07:23:25;;;;;;;1.75;1.30;;;;;;;21.05;48.33;94089.78;5077733;28;20032;-41
2022/07/20 07:25:51;;;;;;;1.98;1.33;;;;;;;21.23;48.70;94095.09;5071027;28;20036;-41
2022/07/20 07:28:16;;;;;;;1.40;1.30;;;;;;;21.28;49.06;94097.59;5076467;28;20020;-41
2022/07/20 07:30:42;;;;;;;5.55;1.40;;;;;;;21.54;48.58;94090.09;5080576;28;20591;-41
2022/07/20 07:33:07;;;;;;;4.45;1.20;;;;;;;22.15;47.05;94094.66;5084053;28;20028;-40
2022/07/20 07:35:32;;;;;;;3.42;1.25;;;;;;;22.75;45.86;94069.44;5080869;28;20031;-41
2022/07/20 07:37:58;;;;;;;0.88;0.88;;;;;;;23.72;44.00;94084.19;5081945;28;20027;-43
2022/07/20 07:40:23;;;;;;;4.55;1.20;;;;;;;25.14;41.39;94085.44;5090842;28;20055;-43
2022/07/20 07:42:49;;;;;;;2.92;1.27;;;;;;;26.09;38.45;94084.41;5091134;28;20028;-40
2022/07/20 07:45:14;;;;;;;1.42;0.77;;;;;;;26.25;38.03;94085.16;5085080;28;20032;-42
2022/07/20 07:47:41;;;;;;;1.30;1.20;;;;;;;26.63;37.39;94086.16;5085266;28;20020;-42
2022/07/20 07:50:07;;;;;;;2.95;1.30;;;;;;;26.74;35.40;94085.25;5082051;28;20462;-41
2022/07/20 07:52:32;;;;;;;1.20;0.90;;;;;;;27.19;33.99;94087.91;5089257;28;20079;-44
2022/07/20 07:54:58;;;;;;;2.25;1.13;;;;;;;27.32;32.34;94082.09;5088072;28;20034;-42
2022/07/20 07:57:23;;;;;;;1.65;1.20;;;;;;;27.25;30.64;94086.06;5089149;28;20031;-41
2022/07/20 07:59:49;;;;;;;1.48;1.38;;;;;;;27.36;31.46;94090.06;5089770;28;20024;-43
2022/07/20 08:02:14;;;;;;;3.08;1.20;;;;;;;27.81;30.30;94092.63;5089786;28;20608;-41
2022/07/20 08:04:39;;;;;;;1.05;0.95;;;;;;;28.39;29.44;94092.81;5089406;28;20028;-43
2022/07/20 08:07:05;;;;;;;22.92;2.03;;;;;;;29.02;28.98;94086.63;5090171;28;20117;-42
2022/07/20 08:09:30;;;;;;;4.53;1.30;;;;;;;29.28;27.36;94079.03;5090511;28;20020;-44
2022/07/20 08:11:56;;;;;;;2.65;1.63;;;;;;;30.02;27.06;94085.75;5090439;28;20521;-39
2022/07/20 08:14:21;;;;;;;1.40;1.15;;;;;;;30.13;26.11;94073.28;5090776;28;20032;-39
2022/07/20 08:16:47;;;;;;;10.18;2.03;;;;;;;30.39;25.88;94074.84;5090289;28;20024;-39
2022/07/20 08:19:12;;;;;;;1.10;1.00;;;;;;;30.97;27.51;94077.97;5090386;28;20024;-43
2022/07/20 08:21:38;;;;;;;1.30;1.10;;;;;;;31.57;25.90;94073.88;5090629;28;20032;-41
2022/07/20 08:24:04;;;;;;;1.10;1.00;;;;;;;31.09;25.40;94066.88;5090670;28;20424;-39
2022/07/20 08:26:30;;;;;;;1.35;1.25;;;;;;;31.62;25.83;94069.00;5090565;28;20055;-43
2022/07/20 08:28:56;;;;;;;4.13;1.50;;;;;;;32.33;24.75;94077.88;5090070;28;20055;-41
2022/07/20 08:31:21;;;;;;;1.30;1.20;;;;;;;31.81;24.10;94082.34;5090449;28;20020;-40
2022/07/20 08:33:47;;;;;;;1.63;1.27;;;;;;;32.12;24.22;94070.22;5090069;28;20032;-42
2022/07/20 08:36:12;;;;;;;2.65;1.05;;;;;;;32.34;23.58;94075.72;5090534;28;20103;-41
2022/07/20 08:38:38;;;;;;;1.48;1.20;;;;;;;32.88;24.37;94074.06;5090320;28;20030;-43
2022/07/20 08:41:07;;;;;;;2.40;0.85;;;;;;;33.23;23.57;94070.50;5090195;28;20035;-40
2022/07/20 08:43:32;;;;;;;1.45;0.95;;;;;;;33.54;22.21;94060.38;5090420;28;20440;-44
2022/07/20 08:45:58;;;;;;;1.20;1.10;;;;;;;33.68;22.61;94069.19;5089778;28;20035;-44
2022/07/20 08:48:25;;;;;;;1.35;1.15;;;;;;;33.60;22.57;94071.94;5090478;28;20016;-39
2022/07/20 08:50:50;;;;;;;3.25;1.30;;;;;;;33.76;22.33;94068.63;5071950;28;20568;-39
2022/07/20 08:53:18;;;;;;;4.80;1.40;;;;;;;34.16;22.40;94072.16;5090021;28;20322;-40
2022/07/20 08:55:44;;;;;;;1.70;1.00;;;;;;;34.08;21.94;94066.31;5090364;28;20474;-42
2022/07/20 08:58:10;;;;;;;3.63;1.13;;;;;;;34.37;22.04;94053.84;5090594;28;20115;-43
2022/07/20 09:00:36;;;;;;;0.90;0.90;;;;;;;34.21;20.88;94074.41;5094356;28;20020;-39
2022/07/20 09:03:04;;;;;;;2.38;1.38;;;;;;;34.49;21.40;94062.63;5093981;28;20417;-41
2022/07/20 09:05:33;;;;;;;3.33;1.30;;;;;;;35.23;21.83;94057.13;5093514;28;20493;-44
2022/07/20 09:07:59;;;;;;;2.75;1.48;;;;;;;35.99;21.03;94057.19;5094142;28;20111;-46
2022/07/20 09:10:28;;;;;;;1.33;1.23;;;;;;;36.30;19.92;94058.84;5093852;28;20036;-42
2022/07/20 09:12:55;;;;;;;6.50;2.10;;;;;;;36.79;20.82;94059.91;5093923;28;20027;-44
2022/07/20 09:15:40;;;;;;;2.08;1.50;;;;;;;36.92;19.34;94054.94;5093552;28;20106;-45
2022/07/20 09:18:10;;;;;;;2.45;1.20;;;;;;;36.25;19.03;94054.53;5093606;28;20117;-43
2022/07/20 09:20:38;;;;;;;5.10;1.98;;;;;;;35.21;20.43;94060.00;5093927;28;20086;-43
2022/07/20 09:23:25;;;;;;;2.75;1.38;;;;;;;34.36;20.62;94052.38;5093938;28;20039;-44
2022/07/20 09:25:51;;;;;;;4.57;1.63;;;;;;;34.77;22.49;94057.28;5093531;28;20040;-46
2022/07/20 09:28:17;;;;;;;1.73;1.23;;;;;;;34.77;20.33;94053.69;5093751;28;20028;-43
2022/07/20 09:30:51;;;;;;;4.00;1.20;;;;;;;34.16;21.74;94049.94;5093755;28;20028;-41
2022/07/20 09:33:23;;;;;;;4.00;1.30;;;;;;;34.93;21.92;94053.91;5093318;28;20119;-43
2022/07/20 09:35:48;;;;;;;1.38;1.27;;;;;;;35.49;21.67;94043.09;5092742;28;20032;-42
2022/07/20 09:38:14;;;;;;;1.30;1.10;;;;;;;35.41;19.63;94042.97;5093520;28;20264;-45
2022/07/20 09:40:41;;;;;;;2.05;1.70;;;;;;;36.13;19.93;94042.19;5093270;28;20027;-43
2022/07/20 09:43:07;;;;;;;9.17;1.83;;;;;;;36.62;18.41;94040.38;5093128;28;20019;-42
2022/07/20 09:45:33;;;;;;;2.28;1.10;;;;;;;36.48;19.36;94044.63;5092100;28;20081;-43
2022/07/20 09:48:09;;;;;;;2.58;1.35;;;;;;;35.65;20.13;94039.63;5093040;28;20545;-42
2022/07/20 09:50:37;;;;;;;1.88;1.67;;;;;;;34.87;20.23;94033.75;5093133;28;20444;-40
2022/07/20 09:53:03;;;;;;;1.42;1.05;;;;;;;34.90;19.60;94029.44;5093033;28;20062;-41
2022/07/20 09:55:30;;;;;;;3.50;1.30;;;;;;;34.34;19.96;94033.03;5092947;28;20076;-42
2022/07/20 09:57:56;;;;;;;2.13;1.40;;;;;;;34.12;20.44;94029.09;5092854;28;20035;-40
2022/07/20 10:00:22;;;;;;;5.65;1.40;;;;;;;34.12;21.32;94035.56;5093233;28;20028;-41
2022/07/20 10:02:48;;;;;;;3.50;1.30;;;;;;;34.07;22.79;94027.59;5093053;28;20492;-42
2022/07/20 10:05:17;;;;;;;1.33;1.20;;;;;;;34.17;20.61;94022.75;5093125;28;20082;-42
2022/07/20 10:07:44;;;;;;;4.60;1.40;;;;;;;34.50;21.27;94021.06;5092843;28;20023;-42
2022/07/20 10:10:09;;;;;;;1.88;1.60;;;;;;;33.77;21.50;94027.09;5092464;28;20051;-42
2022/07/20 10:12:35;;;;;;;1.50;1.35;;;;;;;34.41;22.92;94019.50;5080921;28;20406;-44
2022/07/20 10:15:03;;;;;;;1.63;1.42;;;;;;;33.55;21.47;94016.72;5072572;28;20108;-44
2022/07/20 10:17:33;;;;;;;3.13;1.87;;;;;;;33.05;23.62;94000.78;5054797;28;20386;-41
2022/07/20 10:19:59;;;;;;;1.48;1.20;;;;;;;33.17;22.30;94006.72;5072223;28;20098;-43
2022/07/20 10:22:24;;;;;;;2.08;1.50;;;;;;;33.31;23.53;93999.09;5072648;28;20055;-43
2022/07/20 10:25:14;;;;;;;2.00;1.10;;;;;;;33.53;22.87;93998.78;5072167;28;20060;-43
2022/07/20 10:27:40;;;;;;;3.03;1.17;;;;;;;33.34;20.80;94005.59;5057776;28;20028;-42
2022/07/20 10:30:19;;;;;;;4.90;1.50;;;;;;;32.14;22.45;93990.28;5072422;28;20033;-42
2022/07/20 10:32:58;;;;;;;1.30;1.20;;;;;;;31.06;23.89;94005.44;5072328;28;20028;-41
2022/07/20 10:35:30;;;;;;;;;;;;;;;30.80;23.38;93991.19;5073198;28;20039;-40
2022/07/20 10:37:56;;;;;;;1.38;1.20;;;;;;;30.63;24.05;93998.59;5076612;28;20018;-42
2022/07/20 10:40:26;;;;;;;1.40;1.30;;;;;;;30.85;24.45;93992.03;5092252;28;20481;-42
2022/07/20 10:43:13;;;;;;;2.33;1.92;;;;;;;31.08;25.48;93980.56;5092047;28;20455;-41
2022/07/20 10:45:39;;;;;;;3.97;1.40;;;;;;;31.29;26.38;93982.56;5090061;28;20035;-42
2022/07/20 10:48:14;;;;;;;1.88;1.30;;;;;;;31.86;24.29;93981.06;5088342;28;20035;-43
2022/07/20 10:50:51;;;;;;;1.20;1.10;;;;;;;32.17;24.17;93983.22;5088576;28;21593;-44
2022/07/20 10:53:17;;;;;;;1.80;1.10;;;;;;;32.35;23.28;93974.31;5077758;28;20047;-41
2022/07/20 10:55:42;;;;;;;3.55;1.50;;;;;;;32.12;22.80;93975.94;5087221;28;20028;-41
2022/07/20 10:58:08;;;;;;;1.95;1.30;;;;;;;31.84;23.52;93976.03;5080297;28;20119;-42
2022/07/20 11:00:46;;;;;;;1.45;1.17;;;;;;;31.65;22.99;93979.13;5081734;28;20028;-45
2022/07/20 11:03:16;;;;;;;1.10;1.00;;;;;;;31.57;23.11;93976.09;5087365;28;20020;-42
2022/07/20 11:05:42;;;;;;;1.80;1.50;;;;;;;31.58;25.73;93951.88;5083029;28;20523;-45
2022/07/20 11:08:09;;;;;;;2.67;1.02;;;;;;;32.12;23.84;93965.25;5088623;28;20076;-44
2022/07/20 11:10:36;;;;;;;1.65;1.50;;;;;;;32.17;24.07;93961.09;5085197;28;20028;-42
2022/07/20 11:13:05;;;;;;;1.30;1.20;;;;;;;32.10;22.27;93962.34;5084445;28;20028;-42
2022/07/20 11:15:44;;;;;;;1.70;1.20;;;;;;;31.81;23.39;93965.25;5089848;28;20030;-42
2022/07/20 11:18:11;;;;;;;2.10;1.25;;;;;;;31.68;23.58;93969.22;5089847;28;20111;-42
2022/07/20 11:20:48;;;;;;;6.28;1.25;;;;;;;31.58;24.19;93963.28;5088736;28;20031;-43
2022/07/20 11:23:14;;;;;;;4.10;1.08;;;;;;;31.52;23.74;93961.00;5077434;28;20450;-42
2022/07/20 11:25:55;;;;;;;2.10;1.40;;;;;;;31.23;24.06;93959.56;5082452;28;20028;-42
2022/07/20 11:28:31;;;;;;;1.15;1.05;;;;;;;31.00;24.41;93946.13;5082634;28;20031;-40
2022/07/20 11:30:58;;;;;;;2.63;1.25;;;;;;;31.06;23.37;93962.66;5085379;28;20024;-43
2022/07/20 11:33:32;;;;;;;1.85;1.38;;;;;;;31.00;23.36;93948.25;5081115;28;20032;-41
2022/07/20 11:36:03;;;;;;;5.90;1.42;;;;;;;30.94;24.08;93948.09;5081534;28;20099;-43
2022/07/20 11:38:36;;;;;;;1.38;1.00;;;;;;;31.09;28.55;93955.63;5081847;28;20043;-41
2022/07/20 11:41:04;;;;;;;1.27;1.17;;;;;;;31.30;24.17;93944.03;5081630;28;20520;-42
2022/07/20 11:43:30;;;;;;;2.97;1.17;;;;;;;31.40;24.02;93952.88;5083920;28;20031;-41
2022/07/20 11:46:15;;;;;;;1.48;1.38;;;;;;;31.50;23.35;93940.97;5081482;28;20032;-44
2022/07/20 11:48:43;;;;;;;3.78;1.48;;;;;;;31.45;23.19;93945.13;5076537;28;20032;-45
2022/07/20 11:51:08;;;;;;;1.85;1.05;;;;;;;31.30;23.62;93944.03;5075793;28;20031;-44